Airfield :
LOGIN :

Register | Disclaimer

   EN    FR    IT 

 










Legend :    VFR   Marginal VFR   IFR   Intensive IFR   Very Intensive IFR
Visi :
Ceiling :
>= 8 km
>= 3000ft
5 to 8 km
1000 to 3000 ft
1500m to 5 km
500 to 1000 ft
800 to 1500m
200 to 500 ft
< 800m
< 200 ft
Symbols :   Thunderstorms  Fog  Heavy snow  Heavy precipitations  Wind > 20 kt
SIGMETs :     Misc.  Thunderstorms  Icing  Turbulence  Mountain Waves  Volcanic Ashes






- Airport Elevation : 1197 ft
- IATA code : SPM


ETAD - Spangdahlem Ab

CURRENT METAR :
  • 200056Z AUTO 20009KT 9999 OVC007 04/03 A3015 RMK AO2 RAB18E28 SLP212 P0000 T00360030 $

EXPIRED METARs :
  • 200028Z AUTO 20008KT 9999 OVC008 04/03 A3016 RMK AO2 RAB18E28 SLP216 $
  • 200018Z AUTO 21008KT 9999 -RA OVC009 04/03 A3016 RMK AO2 RAB18 SLP216 $
  • 200011Z AUTO 21007KT 9999 OVC009 04/03 A3016 RMK AO2 SLP216 $
  • 192356Z AUTO 22009KT 9999 OVC010 04/03 A3016 RMK AO2 RAE52 SLP216 P0000 60001 T00360027 10038 20017 58008 $
  • 192256Z AUTO 22008KT 9999 -RA OVC012 03/02 A3018 RMK AO2 RAB45 SLP224 P0000 T00340022 400700017 $
  • 192156Z AUTO 21010KT 9999 OVC014 03/02 A3019 RMK AO2 RAE2055DZB2055E2058RAB08E24DZB24E25DZB33E34RAB34E48DZB48E53 SLP229 P0001 T00310018 $

TAF TAF ETAD
Valid from the 19 at 21:00 until the 21 at 03:00 UTC


192100Z 1921/2103 24010KT 8000 -RA BKN015 OVC025 610209 QNH3006INS
BECMG 2005/2006 22010G15KT 9999 NSW BKN008 OVC012 620202 QNH3004INS
BECMG 2009/2010 21015G25KT 9999 BKN015 QNH2994INS
BECMG 2019/2020 24015G25KT 8000 -SHRA BKN018 610209 QNH2994INS
BECMG 2100/2101 28015G25KT 9999 NSW BKN025 QNH3012INS TX07/2014Z TN03/1921Z LAST NO AMDS AFT 1921 NEXT 2005



MET'MAP, your aeronautical weather chart ! - Copyright ORBIFLY December 2007 - Disclaimer

ORBIFLY MET'MAP TEAM :

Programming & Development : Alexandra Zaïnal
Concept & original design : Baudouin d'Aumeries
Assistance for programming : Marc-Olivier Méhu
Technical & hardware support : Manuel Goepfert

Contact : metmap@orbifly.com




SOURCES & CREDITS :

   NOAA